Abraham Lincoln Capital Airport
KSPI : now visible

Airfield :











YOU CAN JOIN US ON...

 
LOGIN :

Register | Disclaimer

   EN    FR    IT 

 









Legend :    VFR   Marginal VFR   IFR   Intensive IFR   Very Intensive IFR
Visi :
Ceiling :
>= 8 km
>= 3000ft
5 to 8 km
1000 to 3000 ft
1500m to 5 km
500 to 1000 ft
800 to 1500m
200 to 500 ft
< 800m
< 200 ft
Symbols :   Thunderstorms  Fog  Heavy snow  Heavy precipitations  Wind > 20 kt






- Airport Elevation : 598 ft
- IATA code : SPI


KSPI - Abraham Lincoln Capital

CURRENT METAR :
  • 231752Z 18018G27KT 10SM CLR 27/09 A3004 RMK AO2 PK WND 16028/1735 SLP169 T02720094 10278 20189 58007

EXPIRED METARs :
  • 231652Z 18015G24KT 10SM CLR 26/11 A3005 RMK AO2 SLP173 T02610106
  • 231552Z 18014G23KT 10SM CLR 26/11 A3006 RMK AO2 SLP175 T02560111

TAF KSPI
Valid from the 23 at 18:00 until the 24 at 18:00 UTC


231735Z 2318/2418 18015G25KT P6SM SKC
FM240100 17012KT P6SM SCT250
FM241500 19010G17KT P6SM VCSH BKN035
KZKC FIR / North America



MET'MAP, your aeronautical weather chart ! - Copyright ORBIFLY December 2007 - Disclaimer

ORBIFLY MET'MAP TEAM :

Programming & Development : Alexandra Zaïnal
Concept & original design : Baudouin d'Aumeries
Assistance for programming : Marc-Olivier Méhu
Technical & hardware support : Manuel Goepfert

Contact : metmap@orbifly.com




SOURCES & CREDITS :

   NOAA       Earth
Advisory